sensor_id;sensor_type;location;lat;lon;timestamp;P1;P2;P0
64613;PMS5003;51025;37.772;-122.432;2023-09-19T00:01:36;6;6;
64613;PMS5003;51025;37.772;-122.432;2023-09-19T00:04:04;8;6;
64613;PMS5003;51025;37.772;-122.432;2023-09-19T00:06:33;9;8;
64613;PMS5003;51025;37.772;-122.432;2023-09-19T00:09:01;7;7;
64613;PMS5003;51025;37.772;-122.432;2023-09-19T00:11:30;9;8;
64613;PMS5003;51025;37.772;-122.432;2023-09-19T00:13:58;8;7;
64613;PMS5003;51025;37.772;-122.432;2023-09-19T00:16:27;6;6;
64613;PMS5003;51025;37.772;-122.432;2023-09-19T00:18:56;6;6;
64613;PMS5003;51025;37.772;-122.432;2023-09-19T00:21:25;11;9;
64613;PMS5003;51025;37.772;-122.432;2023-09-19T00:23:53;10;8;
64613;PMS5003;51025;37.772;-122.432;2023-09-19T00:26:22;8;8;
64613;PMS5003;51025;37.772;-122.432;2023-09-19T00:28:52;6;6;
64613;PMS5003;51025;37.772;-122.432;2023-09-19T00:31:20;5;5;
64613;PMS5003;51025;37.772;-122.432;2023-09-19T00:33:49;8;6;
64613;PMS5003;51025;37.772;-122.432;2023-09-19T00:36:17;8;6;
64613;PMS5003;51025;37.772;-122.432;2023-09-19T00:38:45;6;6;
64613;PMS5003;51025;37.772;-122.432;2023-09-19T00:41:13;7;7;
64613;PMS5003;51025;37.772;-122.432;2023-09-19T00:43:42;9;8;
64613;PMS5003;51025;37.772;-122.432;2023-09-19T00:46:10;7;7;
64613;PMS5003;51025;37.772;-122.432;2023-09-19T00:48:40;8;8;
64613;PMS5003;51025;37.772;-122.432;2023-09-19T00:51:08;5;5;
64613;PMS5003;51025;37.772;-122.432;2023-09-19T00:53:37;9;9;
64613;PMS5003;51025;37.772;-122.432;2023-09-19T00:56:07;7;7;
64613;PMS5003;51025;37.772;-122.432;2023-09-19T00:58:35;9;9;
64613;PMS5003;51025;37.772;-122.432;2023-09-19T01:01:05;7;7;
64613;PMS5003;51025;37.772;-122.432;2023-09-19T01:03:34;6;6;
64613;PMS5003;51025;37.772;-122.432;2023-09-19T01:06:03;8;7;
64613;PMS5003;51025;37.772;-122.432;2023-09-19T01:08:31;5;5;
64613;PMS5003;51025;37.772;-122.432;2023-09-19T01:11:01;7;7;
64613;PMS5003;51025;37.772;-122.432;2023-09-19T01:13:42;7;7;
64613;PMS5003;51025;37.772;-122.432;2023-09-19T01:16:23;7;7;
64613;PMS5003;51025;37.772;-122.432;2023-09-19T01:19:07;6;5;
64613;PMS5003;51025;37.772;-122.432;2023-09-19T01:21:53;8;7;
64613;PMS5003;51025;37.772;-122.432;2023-09-19T01:24:34;8;6;
64613;PMS5003;51025;37.772;-122.432;2023-09-19T01:27:28;9;9;
64613;PMS5003;51025;37.772;-122.432;2023-09-19T01:30:44;7;7;
64613;PMS5003;51025;37.772;-122.432;2023-09-19T01:33:14;8;7;
64613;PMS5003;51025;37.772;-122.432;2023-09-19T01:35:43;7;7;
64613;PMS5003;51025;37.772;-122.432;2023-09-19T01:38:11;10;9;
64613;PMS5003;51025;37.772;-122.432;2023-09-19T01:40:41;11;11;
64613;PMS5003;51025;37.772;-122.432;2023-09-19T01:43:15;8;7;
64613;PMS5003;51025;37.772;-122.432;2023-09-19T01:45:52;8;8;
64613;PMS5003;51025;37.772;-122.432;2023-09-19T01:48:33;7;7;
64613;PMS5003;51025;37.772;-122.432;2023-09-19T01:51:08;6;6;
64613;PMS5003;51025;37.772;-122.432;2023-09-19T01:53:44;6;6;
64613;PMS5003;51025;37.772;-122.432;2023-09-19T01:56:21;10;8;
64613;PMS5003;51025;37.772;-122.432;2023-09-19T01:58:56;8;6;
64613;PMS5003;51025;37.772;-122.432;2023-09-19T02:01:28;7;6;
64613;PMS5003;51025;37.772;-122.432;2023-09-19T02:03:58;6;6;
64613;PMS5003;51025;37.772;-122.432;2023-09-19T02:06:27;9;9;
64613;PMS5003;51025;37.772;-122.432;2023-09-19T02:08:56;6;6;
64613;PMS5003;51025;37.772;-122.432;2023-09-19T02:11:25;14;13;
64613;PMS5003;51025;37.772;-122.432;2023-09-19T02:13:54;7;7;
64613;PMS5003;51025;37.772;-122.432;2023-09-19T02:16:22;8;6;
64613;PMS5003;51025;37.772;-122.432;2023-09-19T02:18:51;9;8;
64613;PMS5003;51025;37.772;-122.432;2023-09-19T02:21:19;7;7;
64613;PMS5003;51025;37.772;-122.432;2023-09-19T02:23:48;7;6;
64613;PMS5003;51025;37.772;-122.432;2023-09-19T02:26:17;8;6;
64613;PMS5003;51025;37.772;-122.432;2023-09-19T02:28:45;6;6;
64613;PMS5003;51025;37.772;-122.432;2023-09-19T02:31:13;6;6;
64613;PMS5003;51025;37.772;-122.432;2023-09-19T02:33:42;7;7;
64613;PMS5003;51025;37.772;-122.432;2023-09-19T02:36:11;10;10;
64613;PMS5003;51025;37.772;-122.432;2023-09-19T02:38:45;7;7;
64613;PMS5003;51025;37.772;-122.432;2023-09-19T02:41:13;7;5;
64613;PMS5003;51025;37.772;-122.432;2023-09-19T02:43:42;7;7;
64613;PMS5003;51025;37.772;-122.432;2023-09-19T02:46:10;6;6;
64613;PMS5003;51025;37.772;-122.432;2023-09-19T02:48:38;7;6;
64613;PMS5003;51025;37.772;-122.432;2023-09-19T02:51:06;8;8;
64613;PMS5003;51025;37.772;-122.432;2023-09-19T02:53:34;6;6;
64613;PMS5003;51025;37.772;-122.432;2023-09-19T02:56:03;7;7;
64613;PMS5003;51025;37.772;-122.432;2023-09-19T02:58:32;8;8;
64613;PMS5003;51025;37.772;-122.432;2023-09-19T03:01:07;6;6;
64613;PMS5003;51025;37.772;-122.432;2023-09-19T03:03:36;8;8;
64613;PMS5003;51025;37.772;-122.432;2023-09-19T03:06:04;8;7;
64613;PMS5003;51025;37.772;-122.432;2023-09-19T03:08:32;7;7;
64613;PMS5003;51025;37.772;-122.432;2023-09-19T03:11:01;8;8;
64613;PMS5003;51025;37.772;-122.432;2023-09-19T03:13:31;7;7;
64613;PMS5003;51025;37.772;-122.432;2023-09-19T03:16:00;8;6;
64613;PMS5003;51025;37.772;-122.432;2023-09-19T03:18:28;8;8;
64613;PMS5003;51025;37.772;-122.432;2023-09-19T03:20:56;6;6;
64613;PMS5003;51025;37.772;-122.432;2023-09-19T03:23:25;6;6;
64613;PMS5003;51025;37.772;-122.432;2023-09-19T03:26:00;9;7;
64613;PMS5003;51025;37.772;-122.432;2023-09-19T03:28:29;9;9;
64613;PMS5003;51025;37.772;-122.432;2023-09-19T03:31:03;7;7;
64613;PMS5003;51025;37.772;-122.432;2023-09-19T03:33:33;13;13;
64613;PMS5003;51025;37.772;-122.432;2023-09-19T03:36:02;12;7;
64613;PMS5003;51025;37.772;-122.432;2023-09-19T03:38:31;6;6;
64613;PMS5003;51025;37.772;-122.432;2023-09-19T03:41:06;9;6;
64613;PMS5003;51025;37.772;-122.432;2023-09-19T03:43:35;7;7;
64613;PMS5003;51025;37.772;-122.432;2023-09-19T03:46:03;8;8;
64613;PMS5003;51025;37.772;-122.432;2023-09-19T03:48:32;11;7;
64613;PMS5003;51025;37.772;-122.432;2023-09-19T03:51:01;8;8;
64613;PMS5003;51025;37.772;-122.432;2023-09-19T03:53:29;8;6;
64613;PMS5003;51025;37.772;-122.432;2023-09-19T03:55:58;10;9;
64613;PMS5003;51025;37.772;-122.432;2023-09-19T03:58:28;10;8;
64613;PMS5003;51025;37.772;-122.432;2023-09-19T04:00:57;7;7;
64613;PMS5003;51025;37.772;-122.432;2023-09-19T04:03:26;7;7;
64613;PMS5003;51025;37.772;-122.432;2023-09-19T04:05:54;7;6;
64613;PMS5003;51025;37.772;-122.432;2023-09-19T04:08:24;8;7;
64613;PMS5003;51025;37.772;-122.432;2023-09-19T04:10:52;7;7;
64613;PMS5003;51025;37.772;-122.432;2023-09-19T04:13:20;10;6;
64613;PMS5003;51025;37.772;-122.432;2023-09-19T04:15:48;9;9;
64613;PMS5003;51025;37.772;-122.432;2023-09-19T04:18:16;7;5;
64613;PMS5003;51025;37.772;-122.432;2023-09-19T04:20:47;8;7;
64613;PMS5003;51025;37.772;-122.432;2023-09-19T04:23:16;7;7;
64613;PMS5003;51025;37.772;-122.432;2023-09-19T04:25:45;7;7;
64613;PMS5003;51025;37.772;-122.432;2023-09-19T04:28:15;11;10;
64613;PMS5003;51025;37.772;-122.432;2023-09-19T04:30:44;7;7;
64613;PMS5003;51025;37.772;-122.432;2023-09-19T04:33:12;10;8;
64613;PMS5003;51025;37.772;-122.432;2023-09-19T04:35:40;8;8;
64613;PMS5003;51025;37.772;-122.432;2023-09-19T04:38:09;12;9;
64613;PMS5003;51025;37.772;-122.432;2023-09-19T04:40:37;11;8;
64613;PMS5003;51025;37.772;-122.432;2023-09-19T04:43:07;9;7;
64613;PMS5003;51025;37.772;-122.432;2023-09-19T04:45:36;9;8;
64613;PMS5003;51025;37.772;-122.432;2023-09-19T04:48:07;15;15;
64613;PMS5003;51025;37.772;-122.432;2023-09-19T04:50:35;10;9;
64613;PMS5003;51025;37.772;-122.432;2023-09-19T04:53:04;9;9;
64613;PMS5003;51025;37.772;-122.432;2023-09-19T04:55:32;9;9;
64613;PMS5003;51025;37.772;-122.432;2023-09-19T04:58:00;9;9;
64613;PMS5003;51025;37.772;-122.432;2023-09-19T05:00:29;13;12;
64613;PMS5003;51025;37.772;-122.432;2023-09-19T05:02:57;8;6;
64613;PMS5003;51025;37.772;-122.432;2023-09-19T05:05:25;10;8;
64613;PMS5003;51025;37.772;-122.432;2023-09-19T05:07:53;10;7;
64613;PMS5003;51025;37.772;-122.432;2023-09-19T05:10:22;9;9;
64613;PMS5003;51025;37.772;-122.432;2023-09-19T05:12:52;10;8;
64613;PMS5003;51025;37.772;-122.432;2023-09-19T05:15:21;7;7;
64613;PMS5003;51025;37.772;-122.432;2023-09-19T05:17:50;10;8;
64613;PMS5003;51025;37.772;-122.432;2023-09-19T05:20:18;9;9;
64613;PMS5003;51025;37.772;-122.432;2023-09-19T05:22:46;9;9;
64613;PMS5003;51025;37.772;-122.432;2023-09-19T05:25:14;8;8;
64613;PMS5003;51025;37.772;-122.432;2023-09-19T05:27:43;10;8;
64613;PMS5003;51025;37.772;-122.432;2023-09-19T05:30:12;11;9;
64613;PMS5003;51025;37.772;-122.432;2023-09-19T05:32:40;13;10;
64613;PMS5003;51025;37.772;-122.432;2023-09-19T05:35:09;10;9;
64613;PMS5003;51025;37.772;-122.432;2023-09-19T05:37:38;10;8;
64613;PMS5003;51025;37.772;-122.432;2023-09-19T05:40:07;8;8;
64613;PMS5003;51025;37.772;-122.432;2023-09-19T05:42:36;10;8;
64613;PMS5003;51025;37.772;-122.432;2023-09-19T05:45:05;10;10;
64613;PMS5003;51025;37.772;-122.432;2023-09-19T05:47:34;8;8;
64613;PMS5003;51025;37.772;-122.432;2023-09-19T05:50:03;9;8;
64613;PMS5003;51025;37.772;-122.432;2023-09-19T05:52:31;11;11;
64613;PMS5003;51025;37.772;-122.432;2023-09-19T05:54:59;8;8;
64613;PMS5003;51025;37.772;-122.432;2023-09-19T05:57:28;10;8;
64613;PMS5003;51025;37.772;-122.432;2023-09-19T05:59:56;10;10;
64613;PMS5003;51025;37.772;-122.432;2023-09-19T06:02:25;9;9;
64613;PMS5003;51025;37.772;-122.432;2023-09-19T06:04:53;9;9;
64613;PMS5003;51025;37.772;-122.432;2023-09-19T06:07:21;10;10;
64613;PMS5003;51025;37.772;-122.432;2023-09-19T06:09:49;13;12;
64613;PMS5003;51025;37.772;-122.432;2023-09-19T06:12:18;9;8;
64613;PMS5003;51025;37.772;-122.432;2023-09-19T06:14:47;10;10;
64613;PMS5003;51025;37.772;-122.432;2023-09-19T06:17:15;11;11;
64613;PMS5003;51025;37.772;-122.432;2023-09-19T06:19:44;8;7;
64613;PMS5003;51025;37.772;-122.432;2023-09-19T06:22:14;10;10;
64613;PMS5003;51025;37.772;-122.432;2023-09-19T06:24:43;7;7;
64613;PMS5003;51025;37.772;-122.432;2023-09-19T06:27:12;10;9;
64613;PMS5003;51025;37.772;-122.432;2023-09-19T06:29:41;10;10;
64613;PMS5003;51025;37.772;-122.432;2023-09-19T06:32:09;6;6;
64613;PMS5003;51025;37.772;-122.432;2023-09-19T06:34:39;11;11;
64613;PMS5003;51025;37.772;-122.432;2023-09-19T06:37:10;9;9;
64613;PMS5003;51025;37.772;-122.432;2023-09-19T06:39:39;11;10;
64613;PMS5003;51025;37.772;-122.432;2023-09-19T06:42:07;9;9;
64613;PMS5003;51025;37.772;-122.432;2023-09-19T06:44:35;7;7;
64613;PMS5003;51025;37.772;-122.432;2023-09-19T06:47:04;9;9;
64613;PMS5003;51025;37.772;-122.432;2023-09-19T06:49:32;13;13;
64613;PMS5003;51025;37.772;-122.432;2023-09-19T06:52:00;10;10;
64613;PMS5003;51025;37.772;-122.432;2023-09-19T06:54:30;11;11;
64613;PMS5003;51025;37.772;-122.432;2023-09-19T06:56:58;8;8;
64613;PMS5003;51025;37.772;-122.432;2023-09-19T06:59:27;10;9;
64613;PMS5003;51025;37.772;-122.432;2023-09-19T07:01:56;12;9;
64613;PMS5003;51025;37.772;-122.432;2023-09-19T07:04:24;9;9;
64613;PMS5003;51025;37.772;-122.432;2023-09-19T07:06:52;9;9;
64613;PMS5003;51025;37.772;-122.432;2023-09-19T07:09:20;11;10;
64613;PMS5003;51025;37.772;-122.432;2023-09-19T07:11:48;8;8;
64613;PMS5003;51025;37.772;-122.432;2023-09-19T07:14:16;10;10;
64613;PMS5003;51025;37.772;-122.432;2023-09-19T07:16:44;12;11;
64613;PMS5003;51025;37.772;-122.432;2023-09-19T07:19:12;11;8;
64613;PMS5003;51025;37.772;-122.432;2023-09-19T07:21:41;10;9;
64613;PMS5003;51025;37.772;-122.432;2023-09-19T07:24:10;8;8;
64613;PMS5003;51025;37.772;-122.432;2023-09-19T07:26:38;9;9;
64613;PMS5003;51025;37.772;-122.432;2023-09-19T07:29:05;7;7;
64613;PMS5003;51025;37.772;-122.432;2023-09-19T07:31:33;9;9;
64613;PMS5003;51025;37.772;-122.432;2023-09-19T07:34:02;10;10;
64613;PMS5003;51025;37.772;-122.432;2023-09-19T07:36:30;9;9;
64613;PMS5003;51025;37.772;-122.432;2023-09-19T07:38:58;11;10;
64613;PMS5003;51025;37.772;-122.432;2023-09-19T07:41:27;11;9;
64613;PMS5003;51025;37.772;-122.432;2023-09-19T07:43:55;8;8;
64613;PMS5003;51025;37.772;-122.432;2023-09-19T07:46:23;10;10;
64613;PMS5003;51025;37.772;-122.432;2023-09-19T07:48:51;10;10;
64613;PMS5003;51025;37.772;-122.432;2023-09-19T07:51:20;11;11;
64613;PMS5003;51025;37.772;-122.432;2023-09-19T07:53:48;8;7;
64613;PMS5003;51025;37.772;-122.432;2023-09-19T07:56:16;9;9;
64613;PMS5003;51025;37.772;-122.432;2023-09-19T07:58:44;11;10;
64613;PMS5003;51025;37.772;-122.432;2023-09-19T08:01:12;12;9;
64613;PMS5003;51025;37.772;-122.432;2023-09-19T08:03:41;9;8;
64613;PMS5003;51025;37.772;-122.432;2023-09-19T08:06:09;9;9;
64613;PMS5003;51025;37.772;-122.432;2023-09-19T08:08:38;16;11;
64613;PMS5003;51025;37.772;-122.432;2023-09-19T08:11:06;13;9;
64613;PMS5003;51025;37.772;-122.432;2023-09-19T08:13:35;10;9;
64613;PMS5003;51025;37.772;-122.432;2023-09-19T08:16:03;11;8;
64613;PMS5003;51025;37.772;-122.432;2023-09-19T08:18:32;14;12;
64613;PMS5003;51025;37.772;-122.432;2023-09-19T08:21:01;9;7;
64613;PMS5003;51025;37.772;-122.432;2023-09-19T08:23:29;10;10;
64613;PMS5003;51025;37.772;-122.432;2023-09-19T08:25:57;12;10;
64613;PMS5003;51025;37.772;-122.432;2023-09-19T08:28:26;11;11;
64613;PMS5003;51025;37.772;-122.432;2023-09-19T08:30:54;9;9;
64613;PMS5003;51025;37.772;-122.432;2023-09-19T08:33:22;12;10;
64613;PMS5003;51025;37.772;-122.432;2023-09-19T08:35:50;11;11;
64613;PMS5003;51025;37.772;-122.432;2023-09-19T08:38:18;10;10;
64613;PMS5003;51025;37.772;-122.432;2023-09-19T08:40:46;12;10;
64613;PMS5003;51025;37.772;-122.432;2023-09-19T08:43:14;12;11;
64613;PMS5003;51025;37.772;-122.432;2023-09-19T08:45:42;11;8;
64613;PMS5003;51025;37.772;-122.432;2023-09-19T08:48:17;9;9;
64613;PMS5003;51025;37.772;-122.432;2023-09-19T08:50:51;14;13;
64613;PMS5003;51025;37.772;-122.432;2023-09-19T08:53:26;9;9;
64613;PMS5003;51025;37.772;-122.432;2023-09-19T08:56:00;10;9;
64613;PMS5003;51025;37.772;-122.432;2023-09-19T08:58:31;13;10;
64613;PMS5003;51025;37.772;-122.432;2023-09-19T09:01:06;14;11;
64613;PMS5003;51025;37.772;-122.432;2023-09-19T09:03:36;12;10;
64613;PMS5003;51025;37.772;-122.432;2023-09-19T09:06:07;15;12;
64613;PMS5003;51025;37.772;-122.432;2023-09-19T09:08:37;11;10;
64613;PMS5003;51025;37.772;-122.432;2023-09-19T09:11:06;9;8;
64613;PMS5003;51025;37.772;-122.432;2023-09-19T09:13:35;13;12;
64613;PMS5003;51025;37.772;-122.432;2023-09-19T09:16:04;10;10;
64613;PMS5003;51025;37.772;-122.432;2023-09-19T09:18:32;8;8;
64613;PMS5003;51025;37.772;-122.432;2023-09-19T09:21:01;10;8;
64613;PMS5003;51025;37.772;-122.432;2023-09-19T09:23:29;8;8;
64613;PMS5003;51025;37.772;-122.432;2023-09-19T09:25:59;11;11;
64613;PMS5003;51025;37.772;-122.432;2023-09-19T09:28:29;12;12;
64613;PMS5003;51025;37.772;-122.432;2023-09-19T09:30:58;10;10;
64613;PMS5003;51025;37.772;-122.432;2023-09-19T09:33:28;14;11;
64613;PMS5003;51025;37.772;-122.432;2023-09-19T09:35:57;11;11;
64613;PMS5003;51025;37.772;-122.432;2023-09-19T09:38:26;8;8;
64613;PMS5003;51025;37.772;-122.432;2023-09-19T09:40:56;15;13;
64613;PMS5003;51025;37.772;-122.432;2023-09-19T09:43:26;13;13;
64613;PMS5003;51025;37.772;-122.432;2023-09-19T09:46:13;12;11;
64613;PMS5003;51025;37.772;-122.432;2023-09-19T09:48:42;16;14;
64613;PMS5003;51025;37.772;-122.432;2023-09-19T09:51:11;10;10;
64613;PMS5003;51025;37.772;-122.432;2023-09-19T09:53:39;12;11;
64613;PMS5003;51025;37.772;-122.432;2023-09-19T09:56:08;11;11;
64613;PMS5003;51025;37.772;-122.432;2023-09-19T09:58:37;11;11;
64613;PMS5003;51025;37.772;-122.432;2023-09-19T10:01:17;13;11;
64613;PMS5003;51025;37.772;-122.432;2023-09-19T10:03:46;12;11;
64613;PMS5003;51025;37.772;-122.432;2023-09-19T10:06:15;12;12;
64613;PMS5003;51025;37.772;-122.432;2023-09-19T10:08:57;10;10;
64613;PMS5003;51025;37.772;-122.432;2023-09-19T10:11:27;11;11;
64613;PMS5003;51025;37.772;-122.432;2023-09-19T10:13:54;11;8;
64613;PMS5003;51025;37.772;-122.432;2023-09-19T10:16:24;11;10;
64613;PMS5003;51025;37.772;-122.432;2023-09-19T10:18:52;12;12;
64613;PMS5003;51025;37.772;-122.432;2023-09-19T10:21:23;10;10;
64613;PMS5003;51025;37.772;-122.432;2023-09-19T10:23:51;14;12;
64613;PMS5003;51025;37.772;-122.432;2023-09-19T10:26:21;9;9;
64613;PMS5003;51025;37.772;-122.432;2023-09-19T10:28:50;13;11;
64613;PMS5003;51025;37.772;-122.432;2023-09-19T10:31:19;12;10;
64613;PMS5003;51025;37.772;-122.432;2023-09-19T10:33:48;12;10;
64613;PMS5003;51025;37.772;-122.432;2023-09-19T10:36:18;12;10;
64613;PMS5003;51025;37.772;-122.432;2023-09-19T10:38:47;11;10;
64613;PMS5003;51025;37.772;-122.432;2023-09-19T10:41:17;14;12;
64613;PMS5003;51025;37.772;-122.432;2023-09-19T10:43:48;10;10;
64613;PMS5003;51025;37.772;-122.432;2023-09-19T10:46:18;13;11;
64613;PMS5003;51025;37.772;-122.432;2023-09-19T10:48:46;14;11;
64613;PMS5003;51025;37.772;-122.432;2023-09-19T10:51:18;12;12;
64613;PMS5003;51025;37.772;-122.432;2023-09-19T10:53:50;14;12;
64613;PMS5003;51025;37.772;-122.432;2023-09-19T10:56:26;15;12;
64613;PMS5003;51025;37.772;-122.432;2023-09-19T10:59:08;16;14;
64613;PMS5003;51025;37.772;-122.432;2023-09-19T11:01:42;12;12;
64613;PMS5003;51025;37.772;-122.432;2023-09-19T11:04:27;9;9;
64613;PMS5003;51025;37.772;-122.432;2023-09-19T11:07:01;17;13;
64613;PMS5003;51025;37.772;-122.432;2023-09-19T11:09:46;12;12;
64613;PMS5003;51025;37.772;-122.432;2023-09-19T11:12:48;11;10;
64613;PMS5003;51025;37.772;-122.432;2023-09-19T11:16:21;11;10;
64613;PMS5003;51025;37.772;-122.432;2023-09-19T11:18:53;17;15;
64613;PMS5003;51025;37.772;-122.432;2023-09-19T11:21:39;12;12;
64613;PMS5003;51025;37.772;-122.432;2023-09-19T11:24:35;12;12;
64613;PMS5003;51025;37.772;-122.432;2023-09-19T11:27:19;14;12;
64613;PMS5003;51025;37.772;-122.432;2023-09-19T11:29:47;10;10;
64613;PMS5003;51025;37.772;-122.432;2023-09-19T11:33:15;11;11;
64613;PMS5003;51025;37.772;-122.432;2023-09-19T11:36:02;12;11;
64613;PMS5003;51025;37.772;-122.432;2023-09-19T11:39:04;14;12;
64613;PMS5003;51025;37.772;-122.432;2023-09-19T11:41:40;12;12;
64613;PMS5003;51025;37.772;-122.432;2023-09-19T11:44:40;12;11;
64613;PMS5003;51025;37.772;-122.432;2023-09-19T11:47:09;12;11;
64613;PMS5003;51025;37.772;-122.432;2023-09-19T11:49:40;12;12;
64613;PMS5003;51025;37.772;-122.432;2023-09-19T11:52:08;11;11;
64613;PMS5003;51025;37.772;-122.432;2023-09-19T11:54:38;13;13;
64613;PMS5003;51025;37.772;-122.432;2023-09-19T11:57:09;9;9;
64613;PMS5003;51025;37.772;-122.432;2023-09-19T11:59:38;13;11;
64613;PMS5003;51025;37.772;-122.432;2023-09-19T12:02:07;12;11;
64613;PMS5003;51025;37.772;-122.432;2023-09-19T12:04:38;14;12;
64613;PMS5003;51025;37.772;-122.432;2023-09-19T12:07:08;11;10;
64613;PMS5003;51025;37.772;-122.432;2023-09-19T12:09:39;11;10;
64613;PMS5003;51025;37.772;-122.432;2023-09-19T12:12:08;12;12;
64613;PMS5003;51025;37.772;-122.432;2023-09-19T12:14:37;10;9;
64613;PMS5003;51025;37.772;-122.432;2023-09-19T12:17:05;11;11;
64613;PMS5003;51025;37.772;-122.432;2023-09-19T12:19:34;16;16;
64613;PMS5003;51025;37.772;-122.432;2023-09-19T12:22:03;13;12;
64613;PMS5003;51025;37.772;-122.432;2023-09-19T12:24:31;15;15;
64613;PMS5003;51025;37.772;-122.432;2023-09-19T12:27:00;12;12;
64613;PMS5003;51025;37.772;-122.432;2023-09-19T12:29:31;12;12;
64613;PMS5003;51025;37.772;-122.432;2023-09-19T12:32:08;14;12;
64613;PMS5003;51025;37.772;-122.432;2023-09-19T12:34:37;13;13;
64613;PMS5003;51025;37.772;-122.432;2023-09-19T12:37:05;14;12;
64613;PMS5003;51025;37.772;-122.432;2023-09-19T12:39:34;10;9;
64613;PMS5003;51025;37.772;-122.432;2023-09-19T12:42:03;12;10;
64613;PMS5003;51025;37.772;-122.432;2023-09-19T12:44:31;12;12;
64613;PMS5003;51025;37.772;-122.432;2023-09-19T12:47:00;12;11;
64613;PMS5003;51025;37.772;-122.432;2023-09-19T12:49:35;13;12;
64613;PMS5003;51025;37.772;-122.432;2023-09-19T12:52:03;14;13;
64613;PMS5003;51025;37.772;-122.432;2023-09-19T12:54:40;15;12;
64613;PMS5003;51025;37.772;-122.432;2023-09-19T12:57:09;13;11;
64613;PMS5003;51025;37.772;-122.432;2023-09-19T12:59:51;15;13;
64613;PMS5003;51025;37.772;-122.432;2023-09-19T13:02:19;16;12;
64613;PMS5003;51025;37.772;-122.432;2023-09-19T13:04:52;16;16;
64613;PMS5003;51025;37.772;-122.432;2023-09-19T13:07:54;15;15;
64613;PMS5003;51025;37.772;-122.432;2023-09-19T13:10:22;16;16;
64613;PMS5003;51025;37.772;-122.432;2023-09-19T13:12:50;15;14;
64613;PMS5003;51025;37.772;-122.432;2023-09-19T13:15:19;14;13;
64613;PMS5003;51025;37.772;-122.432;2023-09-19T13:17:47;14;14;
64613;PMS5003;51025;37.772;-122.432;2023-09-19T13:20:24;12;12;
64613;PMS5003;51025;37.772;-122.432;2023-09-19T13:22:54;14;13;
64613;PMS5003;51025;37.772;-122.432;2023-09-19T13:25:22;15;13;
64613;PMS5003;51025;37.772;-122.432;2023-09-19T13:27:51;13;11;
64613;PMS5003;51025;37.772;-122.432;2023-09-19T13:30:22;16;15;
64613;PMS5003;51025;37.772;-122.432;2023-09-19T13:32:51;16;11;
64613;PMS5003;51025;37.772;-122.432;2023-09-19T13:35:31;10;10;
64613;PMS5003;51025;37.772;-122.432;2023-09-19T13:37:59;12;12;
64613;PMS5003;51025;37.772;-122.432;2023-09-19T13:40:28;11;11;
64613;PMS5003;51025;37.772;-122.432;2023-09-19T13:42:56;10;10;
64613;PMS5003;51025;37.772;-122.432;2023-09-19T13:45:25;14;10;
64613;PMS5003;51025;37.772;-122.432;2023-09-19T13:47:54;12;10;
64613;PMS5003;51025;37.772;-122.432;2023-09-19T13:50:22;11;11;
64613;PMS5003;51025;37.772;-122.432;2023-09-19T13:52:50;15;12;
64613;PMS5003;51025;37.772;-122.432;2023-09-19T13:55:18;13;9;
64613;PMS5003;51025;37.772;-122.432;2023-09-19T13:57:47;12;12;
64613;PMS5003;51025;37.772;-122.432;2023-09-19T14:00:16;9;9;
64613;PMS5003;51025;37.772;-122.432;2023-09-19T14:02:44;13;11;
64613;PMS5003;51025;37.772;-122.432;2023-09-19T14:05:12;15;15;
64613;PMS5003;51025;37.772;-122.432;2023-09-19T14:07:41;14;12;
64613;PMS5003;51025;37.772;-122.432;2023-09-19T14:10:10;15;12;
64613;PMS5003;51025;37.772;-122.432;2023-09-19T14:12:38;14;13;
64613;PMS5003;51025;37.772;-122.432;2023-09-19T14:15:07;10;10;
64613;PMS5003;51025;37.772;-122.432;2023-09-19T14:17:37;12;12;
64613;PMS5003;51025;37.772;-122.432;2023-09-19T14:20:06;15;15;
64613;PMS5003;51025;37.772;-122.432;2023-09-19T14:22:35;15;14;
64613;PMS5003;51025;37.772;-122.432;2023-09-19T14:25:03;11;9;
64613;PMS5003;51025;37.772;-122.432;2023-09-19T14:27:32;15;15;
64613;PMS5003;51025;37.772;-122.432;2023-09-19T14:30:01;13;12;
64613;PMS5003;51025;37.772;-122.432;2023-09-19T14:32:29;14;12;
64613;PMS5003;51025;37.772;-122.432;2023-09-19T14:34:58;12;11;
64613;PMS5003;51025;37.772;-122.432;2023-09-19T14:37:26;12;12;
64613;PMS5003;51025;37.772;-122.432;2023-09-19T14:39:54;15;14;
64613;PMS5003;51025;37.772;-122.432;2023-09-19T14:42:23;17;14;
64613;PMS5003;51025;37.772;-122.432;2023-09-19T14:44:51;18;18;
64613;PMS5003;51025;37.772;-122.432;2023-09-19T14:47:20;14;11;
64613;PMS5003;51025;37.772;-122.432;2023-09-19T14:49:48;11;11;
64613;PMS5003;51025;37.772;-122.432;2023-09-19T14:52:16;9;9;
64613;PMS5003;51025;37.772;-122.432;2023-09-19T14:54:44;10;10;
64613;PMS5003;51025;37.772;-122.432;2023-09-19T14:57:13;17;15;
64613;PMS5003;51025;37.772;-122.432;2023-09-19T14:59:41;11;11;
64613;PMS5003;51025;37.772;-122.432;2023-09-19T15:02:09;14;11;
64613;PMS5003;51025;37.772;-122.432;2023-09-19T15:04:37;13;13;
64613;PMS5003;51025;37.772;-122.432;2023-09-19T15:07:06;12;12;
64613;PMS5003;51025;37.772;-122.432;2023-09-19T15:09:35;12;11;
64613;PMS5003;51025;37.772;-122.432;2023-09-19T15:12:04;17;15;
64613;PMS5003;51025;37.772;-122.432;2023-09-19T15:14:33;16;14;
64613;PMS5003;51025;37.772;-122.432;2023-09-19T15:17:01;14;12;
64613;PMS5003;51025;37.772;-122.432;2023-09-19T15:19:30;10;10;
64613;PMS5003;51025;37.772;-122.432;2023-09-19T15:21:59;16;16;
64613;PMS5003;51025;37.772;-122.432;2023-09-19T15:24:27;15;13;
64613;PMS5003;51025;37.772;-122.432;2023-09-19T15:26:56;13;11;
64613;PMS5003;51025;37.772;-122.432;2023-09-19T15:29:24;15;13;
64613;PMS5003;51025;37.772;-122.432;2023-09-19T15:31:53;16;12;
64613;PMS5003;51025;37.772;-122.432;2023-09-19T15:34:22;13;13;
64613;PMS5003;51025;37.772;-122.432;2023-09-19T15:36:51;15;15;
64613;PMS5003;51025;37.772;-122.432;2023-09-19T15:39:19;15;15;
64613;PMS5003;51025;37.772;-122.432;2023-09-19T15:41:48;17;16;
64613;PMS5003;51025;37.772;-122.432;2023-09-19T15:44:17;14;13;
64613;PMS5003;51025;37.772;-122.432;2023-09-19T15:46:46;15;13;
64613;PMS5003;51025;37.772;-122.432;2023-09-19T15:49:14;12;12;
64613;PMS5003;51025;37.772;-122.432;2023-09-19T15:51:42;17;15;
64613;PMS5003;51025;37.772;-122.432;2023-09-19T15:54:11;18;17;
64613;PMS5003;51025;37.772;-122.432;2023-09-19T15:56:40;14;11;
64613;PMS5003;51025;37.772;-122.432;2023-09-19T15:59:09;18;16;
64613;PMS5003;51025;37.772;-122.432;2023-09-19T16:01:38;18;13;
64613;PMS5003;51025;37.772;-122.432;2023-09-19T16:04:06;22;19;
64613;PMS5003;51025;37.772;-122.432;2023-09-19T16:06:35;16;15;